sensor_id;sensor_type;location;lat;lon;timestamp;P1;durP1;ratioP1;P2;durP2;ratioP2
54139;SDS011;40046;53.254;5.900;2022-08-03T00:00:04;4.95;;;3.08;;
54139;SDS011;40046;53.254;5.900;2022-08-03T00:02:37;5.82;;;3.00;;
54139;SDS011;40046;53.254;5.900;2022-08-03T00:05:03;8.10;;;3.47;;
54139;SDS011;40046;53.254;5.900;2022-08-03T00:07:32;9.00;;;2.90;;
54139;SDS011;40046;53.254;5.900;2022-08-03T00:09:58;9.32;;;3.33;;
54139;SDS011;40046;53.254;5.900;2022-08-03T00:12:24;6.45;;;3.65;;
54139;SDS011;40046;53.254;5.900;2022-08-03T00:14:50;6.57;;;2.95;;
54139;SDS011;40046;53.254;5.900;2022-08-03T00:17:15;11.35;;;3.75;;
54139;SDS011;40046;53.254;5.900;2022-08-03T00:19:41;10.55;;;3.40;;
54139;SDS011;40046;53.254;5.900;2022-08-03T00:22:07;6.97;;;2.42;;
54139;SDS011;40046;53.254;5.900;2022-08-03T00:24:33;9.02;;;2.92;;
54139;SDS011;40046;53.254;5.900;2022-08-03T00:27:00;8.00;;;2.80;;
54139;SDS011;40046;53.254;5.900;2022-08-03T00:29:26;6.82;;;2.97;;
54139;SDS011;40046;53.254;5.900;2022-08-03T00:31:52;8.02;;;3.70;;
54139;SDS011;40046;53.254;5.900;2022-08-03T00:34:18;7.28;;;2.67;;
54139;SDS011;40046;53.254;5.900;2022-08-03T00:36:43;9.93;;;2.58;;
54139;SDS011;40046;53.254;5.900;2022-08-03T00:39:09;12.23;;;4.07;;
54139;SDS011;40046;53.254;5.900;2022-08-03T00:41:35;7.95;;;3.30;;
54139;SDS011;40046;53.254;5.900;2022-08-03T00:44:01;10.65;;;4.50;;
54139;SDS011;40046;53.254;5.900;2022-08-03T00:46:26;12.57;;;3.25;;
54139;SDS011;40046;53.254;5.900;2022-08-03T00:48:52;7.43;;;3.25;;
54139;SDS011;40046;53.254;5.900;2022-08-03T00:51:19;7.80;;;3.10;;
54139;SDS011;40046;53.254;5.900;2022-08-03T00:53:45;10.20;;;3.88;;
54139;SDS011;40046;53.254;5.900;2022-08-03T00:56:12;13.88;;;3.28;;
54139;SDS011;40046;53.254;5.900;2022-08-03T00:58:39;6.45;;;2.58;;
54139;SDS011;40046;53.254;5.900;2022-08-03T01:01:05;8.07;;;3.30;;
54139;SDS011;40046;53.254;5.900;2022-08-03T01:03:31;8.40;;;3.45;;
54139;SDS011;40046;53.254;5.900;2022-08-03T01:05:59;7.65;;;3.08;;
54139;SDS011;40046;53.254;5.900;2022-08-03T01:13:47;9.13;;;3.28;;
54139;SDS011;40046;53.254;5.900;2022-08-03T01:16:56;11.55;;;2.80;;
54139;SDS011;40046;53.254;5.900;2022-08-03T01:27:24;7.60;;;3.00;;
54139;SDS011;40046;53.254;5.900;2022-08-03T01:32:24;7.50;;;3.25;;
54139;SDS011;40046;53.254;5.900;2022-08-03T01:35:09;10.40;;;3.42;;
54139;SDS011;40046;53.254;5.900;2022-08-03T01:37:44;9.60;;;3.30;;
54139;SDS011;40046;53.254;5.900;2022-08-03T01:40:15;7.63;;;3.67;;
54139;SDS011;40046;53.254;5.900;2022-08-03T01:42:43;9.07;;;3.08;;
54139;SDS011;40046;53.254;5.900;2022-08-03T01:45:12;7.63;;;4.10;;
54139;SDS011;40046;53.254;5.900;2022-08-03T01:47:40;9.10;;;3.85;;
54139;SDS011;40046;53.254;5.900;2022-08-03T01:50:08;12.35;;;3.63;;
54139;SDS011;40046;53.254;5.900;2022-08-03T01:52:36;8.20;;;3.67;;
54139;SDS011;40046;53.254;5.900;2022-08-03T01:55:06;7.63;;;3.00;;
54139;SDS011;40046;53.254;5.900;2022-08-03T01:57:34;12.77;;;3.70;;
54139;SDS011;40046;53.254;5.900;2022-08-03T02:00:03;10.38;;;3.70;;
54139;SDS011;40046;53.254;5.900;2022-08-03T02:02:36;10.52;;;3.10;;
54139;SDS011;40046;53.254;5.900;2022-08-03T02:05:05;11.90;;;3.25;;
54139;SDS011;40046;53.254;5.900;2022-08-03T02:07:33;8.15;;;4.20;;
54139;SDS011;40046;53.254;5.900;2022-08-03T02:10:00;8.10;;;3.13;;
54139;SDS011;40046;53.254;5.900;2022-08-03T02:12:30;8.20;;;2.88;;
54139;SDS011;40046;53.254;5.900;2022-08-03T02:14:56;8.55;;;2.78;;
54139;SDS011;40046;53.254;5.900;2022-08-03T02:17:25;16.67;;;5.18;;
54139;SDS011;40046;53.254;5.900;2022-08-03T02:19:52;9.15;;;3.72;;
54139;SDS011;40046;53.254;5.900;2022-08-03T02:22:20;10.98;;;3.58;;
54139;SDS011;40046;53.254;5.900;2022-08-03T02:24:48;10.27;;;4.15;;
54139;SDS011;40046;53.254;5.900;2022-08-03T02:27:21;8.25;;;3.20;;
54139;SDS011;40046;53.254;5.900;2022-08-03T02:29:53;8.25;;;3.35;;
54139;SDS011;40046;53.254;5.900;2022-08-03T02:32:33;16.30;;;4.75;;
54139;SDS011;40046;53.254;5.900;2022-08-03T02:35:03;11.95;;;3.47;;
54139;SDS011;40046;53.254;5.900;2022-08-03T02:37:31;6.25;;;3.47;;
54139;SDS011;40046;53.254;5.900;2022-08-03T02:40:01;10.57;;;3.00;;
54139;SDS011;40046;53.254;5.900;2022-08-03T02:42:28;8.38;;;3.53;;
54139;SDS011;40046;53.254;5.900;2022-08-03T02:44:57;7.80;;;3.53;;
54139;SDS011;40046;53.254;5.900;2022-08-03T02:47:26;9.07;;;4.72;;
54139;SDS011;40046;53.254;5.900;2022-08-03T02:49:54;8.98;;;3.97;;
54139;SDS011;40046;53.254;5.900;2022-08-03T02:52:24;6.93;;;3.38;;
54139;SDS011;40046;53.254;5.900;2022-08-03T02:54:54;9.98;;;3.47;;
54139;SDS011;40046;53.254;5.900;2022-08-03T02:57:23;5.82;;;3.20;;
54139;SDS011;40046;53.254;5.900;2022-08-03T02:59:52;6.15;;;3.03;;
54139;SDS011;40046;53.254;5.900;2022-08-03T03:02:19;8.77;;;3.92;;
54139;SDS011;40046;53.254;5.900;2022-08-03T03:04:46;7.38;;;3.28;;
54139;SDS011;40046;53.254;5.900;2022-08-03T03:07:15;6.95;;;3.50;;
54139;SDS011;40046;53.254;5.900;2022-08-03T03:09:44;12.57;;;3.08;;
54139;SDS011;40046;53.254;5.900;2022-08-03T03:12:10;12.35;;;4.07;;
54139;SDS011;40046;53.254;5.900;2022-08-03T03:14:37;7.63;;;3.90;;
54139;SDS011;40046;53.254;5.900;2022-08-03T03:17:06;9.60;;;4.10;;
54139;SDS011;40046;53.254;5.900;2022-08-03T03:19:33;8.52;;;2.85;;
54139;SDS011;40046;53.254;5.900;2022-08-03T03:22:00;6.97;;;2.83;;
54139;SDS011;40046;53.254;5.900;2022-08-03T03:24:28;10.63;;;3.38;;
54139;SDS011;40046;53.254;5.900;2022-08-03T03:26:54;11.25;;;3.33;;
54139;SDS011;40046;53.254;5.900;2022-08-03T03:29:23;9.05;;;3.30;;
54139;SDS011;40046;53.254;5.900;2022-08-03T03:31:49;6.90;;;3.42;;
54139;SDS011;40046;53.254;5.900;2022-08-03T03:34:16;8.93;;;3.47;;
54139;SDS011;40046;53.254;5.900;2022-08-03T03:36:43;10.93;;;4.38;;
54139;SDS011;40046;53.254;5.900;2022-08-03T03:39:09;8.77;;;3.58;;
54139;SDS011;40046;53.254;5.900;2022-08-03T03:41:35;8.10;;;3.00;;
54139;SDS011;40046;53.254;5.900;2022-08-03T03:44:01;7.90;;;3.47;;
54139;SDS011;40046;53.254;5.900;2022-08-03T03:46:27;13.95;;;3.92;;
54139;SDS011;40046;53.254;5.900;2022-08-03T03:48:53;6.13;;;3.22;;
54139;SDS011;40046;53.254;5.900;2022-08-03T03:51:18;6.70;;;2.85;;
54139;SDS011;40046;53.254;5.900;2022-08-03T03:53:57;8.77;;;3.70;;
54139;SDS011;40046;53.254;5.900;2022-08-03T03:56:25;7.05;;;3.30;;
54139;SDS011;40046;53.254;5.900;2022-08-03T03:58:51;8.57;;;4.57;;
54139;SDS011;40046;53.254;5.900;2022-08-03T04:01:18;10.88;;;3.50;;
54139;SDS011;40046;53.254;5.900;2022-08-03T04:03:44;11.98;;;3.58;;
54139;SDS011;40046;53.254;5.900;2022-08-03T04:06:10;6.03;;;3.67;;
54139;SDS011;40046;53.254;5.900;2022-08-03T04:08:56;11.63;;;2.72;;
54139;SDS011;40046;53.254;5.900;2022-08-03T04:11:42;9.20;;;3.20;;
54139;SDS011;40046;53.254;5.900;2022-08-03T04:16:54;8.10;;;2.78;;
54139;SDS011;40046;53.254;5.900;2022-08-03T04:19:33;7.63;;;3.10;;
54139;SDS011;40046;53.254;5.900;2022-08-03T04:22:04;8.98;;;2.78;;
54139;SDS011;40046;53.254;5.900;2022-08-03T04:24:41;8.35;;;3.22;;
54139;SDS011;40046;53.254;5.900;2022-08-03T04:27:10;10.23;;;3.08;;
54139;SDS011;40046;53.254;5.900;2022-08-03T04:29:41;13.15;;;3.30;;
54139;SDS011;40046;53.254;5.900;2022-08-03T04:32:10;9.52;;;3.47;;
54139;SDS011;40046;53.254;5.900;2022-08-03T04:34:38;9.43;;;4.28;;
54139;SDS011;40046;53.254;5.900;2022-08-03T04:37:04;13.40;;;3.20;;
54139;SDS011;40046;53.254;5.900;2022-08-03T04:39:40;8.90;;;2.72;;
54139;SDS011;40046;53.254;5.900;2022-08-03T04:42:08;9.00;;;3.47;;
54139;SDS011;40046;53.254;5.900;2022-08-03T04:44:37;8.50;;;2.90;;
54139;SDS011;40046;53.254;5.900;2022-08-03T04:47:04;12.40;;;2.67;;
54139;SDS011;40046;53.254;5.900;2022-08-03T04:49:31;8.85;;;3.00;;
54139;SDS011;40046;53.254;5.900;2022-08-03T04:51:57;6.93;;;2.75;;
54139;SDS011;40046;53.254;5.900;2022-08-03T04:54:23;10.70;;;2.90;;
54139;SDS011;40046;53.254;5.900;2022-08-03T04:56:49;8.65;;;3.03;;
54139;SDS011;40046;53.254;5.900;2022-08-03T04:59:14;8.43;;;2.85;;
54139;SDS011;40046;53.254;5.900;2022-08-03T05:01:41;9.27;;;3.25;;
54139;SDS011;40046;53.254;5.900;2022-08-03T05:04:08;8.13;;;3.80;;
54139;SDS011;40046;53.254;5.900;2022-08-03T05:06:34;6.93;;;2.70;;
54139;SDS011;40046;53.254;5.900;2022-08-03T05:09:00;31.15;;;3.17;;
54139;SDS011;40046;53.254;5.900;2022-08-03T05:11:25;7.90;;;3.00;;
54139;SDS011;40046;53.254;5.900;2022-08-03T05:13:51;11.40;;;3.15;;
54139;SDS011;40046;53.254;5.900;2022-08-03T05:16:17;14.57;;;3.10;;
54139;SDS011;40046;53.254;5.900;2022-08-03T05:18:43;7.72;;;2.85;;
54139;SDS011;40046;53.254;5.900;2022-08-03T05:21:10;7.07;;;2.72;;
54139;SDS011;40046;53.254;5.900;2022-08-03T05:23:41;12.48;;;3.00;;
54139;SDS011;40046;53.254;5.900;2022-08-03T05:26:07;9.95;;;3.25;;
54139;SDS011;40046;53.254;5.900;2022-08-03T05:28:36;15.07;;;4.13;;
54139;SDS011;40046;53.254;5.900;2022-08-03T05:31:02;6.57;;;3.20;;
54139;SDS011;40046;53.254;5.900;2022-08-03T05:33:27;7.25;;;2.45;;
54139;SDS011;40046;53.254;5.900;2022-08-03T05:35:53;10.93;;;2.90;;
54139;SDS011;40046;53.254;5.900;2022-08-03T05:38:19;10.32;;;2.65;;
54139;SDS011;40046;53.254;5.900;2022-08-03T05:40:45;8.30;;;2.35;;
54139;SDS011;40046;53.254;5.900;2022-08-03T05:43:10;9.90;;;2.72;;
54139;SDS011;40046;53.254;5.900;2022-08-03T05:45:36;12.35;;;3.30;;
54139;SDS011;40046;53.254;5.900;2022-08-03T05:48:03;9.57;;;2.72;;
54139;SDS011;40046;53.254;5.900;2022-08-03T05:50:29;11.15;;;2.70;;
54139;SDS011;40046;53.254;5.900;2022-08-03T05:52:56;9.07;;;2.50;;
54139;SDS011;40046;53.254;5.900;2022-08-03T05:55:22;13.32;;;4.43;;
54139;SDS011;40046;53.254;5.900;2022-08-03T05:57:48;11.05;;;3.75;;
54139;SDS011;40046;53.254;5.900;2022-08-03T06:00:13;12.50;;;4.57;;
54139;SDS011;40046;53.254;5.900;2022-08-03T06:02:40;13.45;;;3.65;;
54139;SDS011;40046;53.254;5.900;2022-08-03T06:05:06;16.30;;;4.30;;
54139;SDS011;40046;53.254;5.900;2022-08-03T06:07:32;15.95;;;4.55;;
54139;SDS011;40046;53.254;5.900;2022-08-03T06:09:58;12.35;;;3.22;;
54139;SDS011;40046;53.254;5.900;2022-08-03T06:12:26;9.23;;;3.58;;
54139;SDS011;40046;53.254;5.900;2022-08-03T06:14:52;13.77;;;2.97;;
54139;SDS011;40046;53.254;5.900;2022-08-03T06:17:18;7.68;;;2.42;;
54139;SDS011;40046;53.254;5.900;2022-08-03T06:19:43;8.55;;;2.80;;
54139;SDS011;40046;53.254;5.900;2022-08-03T06:22:09;10.52;;;3.30;;
54139;SDS011;40046;53.254;5.900;2022-08-03T06:24:35;10.38;;;3.60;;
54139;SDS011;40046;53.254;5.900;2022-08-03T06:27:00;11.10;;;4.32;;
54139;SDS011;40046;53.254;5.900;2022-08-03T06:29:26;11.32;;;3.20;;
54139;SDS011;40046;53.254;5.900;2022-08-03T06:31:52;15.00;;;3.42;;
54139;SDS011;40046;53.254;5.900;2022-08-03T06:34:18;11.80;;;3.75;;
54139;SDS011;40046;53.254;5.900;2022-08-03T06:36:43;11.73;;;2.58;;
54139;SDS011;40046;53.254;5.900;2022-08-03T06:39:12;16.75;;;3.80;;
54139;SDS011;40046;53.254;5.900;2022-08-03T06:41:38;14.90;;;3.15;;
54139;SDS011;40046;53.254;5.900;2022-08-03T06:44:07;8.38;;;2.88;;
54139;SDS011;40046;53.254;5.900;2022-08-03T06:46:33;20.35;;;4.03;;
54139;SDS011;40046;53.254;5.900;2022-08-03T06:48:59;10.02;;;2.47;;
54139;SDS011;40046;53.254;5.900;2022-08-03T06:51:25;15.82;;;2.85;;
54139;SDS011;40046;53.254;5.900;2022-08-03T06:53:50;16.08;;;3.55;;
54139;SDS011;40046;53.254;5.900;2022-08-03T06:56:16;13.60;;;4.65;;
54139;SDS011;40046;53.254;5.900;2022-08-03T06:58:42;11.60;;;4.57;;
54139;SDS011;40046;53.254;5.900;2022-08-03T07:01:07;17.92;;;3.75;;
54139;SDS011;40046;53.254;5.900;2022-08-03T07:03:33;12.35;;;3.20;;
54139;SDS011;40046;53.254;5.900;2022-08-03T07:05:59;12.45;;;3.22;;
54139;SDS011;40046;53.254;5.900;2022-08-03T07:08:25;8.10;;;2.90;;
54139;SDS011;40046;53.254;5.900;2022-08-03T07:10:51;14.48;;;3.38;;
54139;SDS011;40046;53.254;5.900;2022-08-03T07:13:17;10.25;;;3.03;;
54139;SDS011;40046;53.254;5.900;2022-08-03T07:15:42;11.40;;;3.22;;
54139;SDS011;40046;53.254;5.900;2022-08-03T07:18:08;13.93;;;3.88;;
54139;SDS011;40046;53.254;5.900;2022-08-03T07:20:34;12.65;;;4.25;;
54139;SDS011;40046;53.254;5.900;2022-08-03T07:23:00;15.55;;;4.40;;
54139;SDS011;40046;53.254;5.900;2022-08-03T07:25:26;16.00;;;4.03;;
54139;SDS011;40046;53.254;5.900;2022-08-03T07:27:51;17.65;;;4.57;;
54139;SDS011;40046;53.254;5.900;2022-08-03T07:30:17;10.70;;;2.95;;
54139;SDS011;40046;53.254;5.900;2022-08-03T07:32:43;11.70;;;3.97;;
54139;SDS011;40046;53.254;5.900;2022-08-03T07:35:09;14.05;;;3.60;;
54139;SDS011;40046;53.254;5.900;2022-08-03T07:37:35;14.40;;;3.80;;
54139;SDS011;40046;53.254;5.900;2022-08-03T07:40:02;14.10;;;4.07;;
54139;SDS011;40046;53.254;5.900;2022-08-03T07:42:29;16.85;;;4.20;;
54139;SDS011;40046;53.254;5.900;2022-08-03T07:44:55;17.25;;;4.40;;
54139;SDS011;40046;53.254;5.900;2022-08-03T07:47:22;12.27;;;3.63;;
54139;SDS011;40046;53.254;5.900;2022-08-03T07:49:49;13.57;;;4.57;;
54139;SDS011;40046;53.254;5.900;2022-08-03T07:52:15;16.40;;;4.05;;
54139;SDS011;40046;53.254;5.900;2022-08-03T07:55:00;18.92;;;3.75;;
54139;SDS011;40046;53.254;5.900;2022-08-03T07:57:26;14.35;;;4.68;;
54139;SDS011;40046;53.254;5.900;2022-08-03T07:59:51;10.38;;;3.63;;
54139;SDS011;40046;53.254;5.900;2022-08-03T08:02:17;15.02;;;3.72;;
54139;SDS011;40046;53.254;5.900;2022-08-03T08:04:43;13.85;;;4.05;;
54139;SDS011;40046;53.254;5.900;2022-08-03T08:07:08;15.23;;;4.50;;
54139;SDS011;40046;53.254;5.900;2022-08-03T08:09:34;10.50;;;4.65;;
54139;SDS011;40046;53.254;5.900;2022-08-03T08:12:00;15.13;;;3.83;;
54139;SDS011;40046;53.254;5.900;2022-08-03T08:14:26;11.55;;;3.42;;
54139;SDS011;40046;53.254;5.900;2022-08-03T08:16:51;13.63;;;4.05;;
54139;SDS011;40046;53.254;5.900;2022-08-03T08:19:17;15.85;;;5.25;;
54139;SDS011;40046;53.254;5.900;2022-08-03T08:21:43;13.52;;;4.15;;
54139;SDS011;40046;53.254;5.900;2022-08-03T08:24:09;12.43;;;4.53;;
54139;SDS011;40046;53.254;5.900;2022-08-03T08:26:35;16.38;;;4.22;;
54139;SDS011;40046;53.254;5.900;2022-08-03T08:29:01;14.48;;;4.20;;
54139;SDS011;40046;53.254;5.900;2022-08-03T08:31:28;15.57;;;4.95;;
54139;SDS011;40046;53.254;5.900;2022-08-03T08:33:53;13.23;;;4.13;;
54139;SDS011;40046;53.254;5.900;2022-08-03T08:36:19;15.10;;;3.72;;
54139;SDS011;40046;53.254;5.900;2022-08-03T08:38:45;13.90;;;4.25;;
54139;SDS011;40046;53.254;5.900;2022-08-03T08:41:11;14.48;;;4.85;;
54139;SDS011;40046;53.254;5.900;2022-08-03T08:43:38;13.50;;;4.55;;
54139;SDS011;40046;53.254;5.900;2022-08-03T08:46:04;17.55;;;5.22;;
54139;SDS011;40046;53.254;5.900;2022-08-03T08:48:35;10.40;;;4.88;;
54139;SDS011;40046;53.254;5.900;2022-08-03T08:51:08;16.52;;;4.95;;
54139;SDS011;40046;53.254;5.900;2022-08-03T08:53:36;19.05;;;5.60;;
54139;SDS011;40046;53.254;5.900;2022-08-03T08:56:05;16.70;;;5.47;;
54139;SDS011;40046;53.254;5.900;2022-08-03T08:58:36;14.35;;;4.90;;
54139;SDS011;40046;53.254;5.900;2022-08-03T09:01:05;13.63;;;4.30;;
54139;SDS011;40046;53.254;5.900;2022-08-03T09:03:34;16.08;;;5.40;;
54139;SDS011;40046;53.254;5.900;2022-08-03T09:06:00;13.00;;;4.88;;
54139;SDS011;40046;53.254;5.900;2022-08-03T09:08:27;15.07;;;4.88;;
54139;SDS011;40046;53.254;5.900;2022-08-03T09:10:54;15.20;;;5.00;;
54139;SDS011;40046;53.254;5.900;2022-08-03T09:13:20;16.55;;;4.78;;
54139;SDS011;40046;53.254;5.900;2022-08-03T09:15:45;14.63;;;5.53;;
54139;SDS011;40046;53.254;5.900;2022-08-03T09:18:11;16.02;;;4.68;;
54139;SDS011;40046;53.254;5.900;2022-08-03T09:20:39;14.98;;;5.18;;
54139;SDS011;40046;53.254;5.900;2022-08-03T09:23:05;12.00;;;4.90;;
54139;SDS011;40046;53.254;5.900;2022-08-03T09:30:42;18.38;;;5.63;;
54139;SDS011;40046;53.254;5.900;2022-08-03T09:33:09;18.58;;;5.82;;
54139;SDS011;40046;53.254;5.900;2022-08-03T09:35:43;18.17;;;6.28;;
54139;SDS011;40046;53.254;5.900;2022-08-03T09:38:14;18.55;;;6.57;;
54139;SDS011;40046;53.254;5.900;2022-08-03T09:40:45;20.60;;;7.60;;
54139;SDS011;40046;53.254;5.900;2022-08-03T09:43:11;16.88;;;6.47;;
54139;SDS011;40046;53.254;5.900;2022-08-03T09:45:37;17.88;;;7.22;;
54139;SDS011;40046;53.254;5.900;2022-08-03T09:50:49;19.90;;;9.02;;
54139;SDS011;40046;53.254;5.900;2022-08-03T09:53:17;19.52;;;8.85;;
54139;SDS011;40046;53.254;5.900;2022-08-03T09:56:16;18.90;;;8.90;;
54139;SDS011;40046;53.254;5.900;2022-08-03T09:58:43;15.73;;;7.35;;
54139;SDS011;40046;53.254;5.900;2022-08-03T10:01:15;14.90;;;8.05;;
54139;SDS011;40046;53.254;5.900;2022-08-03T10:03:41;21.90;;;9.98;;
54139;SDS011;40046;53.254;5.900;2022-08-03T10:06:17;23.02;;;9.20;;
54139;SDS011;40046;53.254;5.900;2022-08-03T10:08:44;16.58;;;8.02;;
54139;SDS011;40046;53.254;5.900;2022-08-03T10:11:10;20.60;;;9.10;;
54139;SDS011;40046;53.254;5.900;2022-08-03T10:13:36;17.52;;;8.70;;
54139;SDS011;40046;53.254;5.900;2022-08-03T10:16:02;24.35;;;11.90;;
54139;SDS011;40046;53.254;5.900;2022-08-03T10:18:29;19.33;;;7.68;;
54139;SDS011;40046;53.254;5.900;2022-08-03T10:20:58;18.52;;;8.70;;
54139;SDS011;40046;53.254;5.900;2022-08-03T10:23:33;21.42;;;9.45;;
54139;SDS011;40046;53.254;5.900;2022-08-03T10:26:01;23.83;;;8.05;;
54139;SDS011;40046;53.254;5.900;2022-08-03T10:28:32;21.55;;;9.05;;
54139;SDS011;40046;53.254;5.900;2022-08-03T10:30:59;22.63;;;9.30;;
54139;SDS011;40046;53.254;5.900;2022-08-03T10:33:27;15.57;;;7.15;;
54139;SDS011;40046;53.254;5.900;2022-08-03T10:35:56;17.85;;;7.50;;
54139;SDS011;40046;53.254;5.900;2022-08-03T10:38:37;18.48;;;7.53;;
54139;SDS011;40046;53.254;5.900;2022-08-03T10:41:11;20.17;;;8.60;;
54139;SDS011;40046;53.254;5.900;2022-08-03T10:43:44;14.75;;;7.40;;
54139;SDS011;40046;53.254;5.900;2022-08-03T10:46:17;17.35;;;7.30;;
54139;SDS011;40046;53.254;5.900;2022-08-03T10:48:45;19.17;;;7.32;;
54139;SDS011;40046;53.254;5.900;2022-08-03T10:51:13;22.58;;;8.65;;
54139;SDS011;40046;53.254;5.900;2022-08-03T10:53:40;20.50;;;6.53;;
54139;SDS011;40046;53.254;5.900;2022-08-03T11:02:09;14.60;;;6.03;;
54139;SDS011;40046;53.254;5.900;2022-08-03T11:04:36;17.58;;;7.65;;
54139;SDS011;40046;53.254;5.900;2022-08-03T11:09:40;15.63;;;6.22;;
54139;SDS011;40046;53.254;5.900;2022-08-03T11:14:56;16.85;;;5.78;;
54139;SDS011;40046;53.254;5.900;2022-08-03T11:17:24;17.02;;;6.10;;
54139;SDS011;40046;53.254;5.900;2022-08-03T11:19:51;18.75;;;5.82;;
54139;SDS011;40046;53.254;5.900;2022-08-03T11:22:18;17.50;;;5.53;;
54139;SDS011;40046;53.254;5.900;2022-08-03T11:27:21;13.60;;;6.15;;
54139;SDS011;40046;53.254;5.900;2022-08-03T11:35:12;15.68;;;6.93;;
54139;SDS011;40046;53.254;5.900;2022-08-03T11:46:02;18.45;;;6.40;;
54139;SDS011;40046;53.254;5.900;2022-08-03T11:51:05;13.65;;;5.97;;
54139;SDS011;40046;53.254;5.900;2022-08-03T11:53:42;21.70;;;7.40;;
54139;SDS011;40046;53.254;5.900;2022-08-03T11:56:08;15.48;;;6.78;;
54139;SDS011;40046;53.254;5.900;2022-08-03T11:58:34;20.15;;;6.80;;
54139;SDS011;40046;53.254;5.900;2022-08-03T12:01:06;15.13;;;6.78;;
54139;SDS011;40046;53.254;5.900;2022-08-03T12:03:33;14.35;;;6.28;;
54139;SDS011;40046;53.254;5.900;2022-08-03T12:05:59;15.23;;;5.30;;
54139;SDS011;40046;53.254;5.900;2022-08-03T12:08:29;17.58;;;5.75;;
54139;SDS011;40046;53.254;5.900;2022-08-03T12:10:57;18.55;;;6.32;;
54139;SDS011;40046;53.254;5.900;2022-08-03T12:13:24;20.40;;;6.85;;
54139;SDS011;40046;53.254;5.900;2022-08-03T12:15:52;17.75;;;5.85;;
54139;SDS011;40046;53.254;5.900;2022-08-03T12:18:20;16.70;;;4.65;;
54139;SDS011;40046;53.254;5.900;2022-08-03T12:20:47;17.45;;;5.65;;
54139;SDS011;40046;53.254;5.900;2022-08-03T12:23:15;19.80;;;6.03;;
54139;SDS011;40046;53.254;5.900;2022-08-03T12:25:42;16.80;;;5.13;;
54139;SDS011;40046;53.254;5.900;2022-08-03T12:28:16;13.07;;;4.70;;
54139;SDS011;40046;53.254;5.900;2022-08-03T12:30:44;13.32;;;4.70;;
54139;SDS011;40046;53.254;5.900;2022-08-03T12:33:12;15.82;;;4.85;;
54139;SDS011;40046;53.254;5.900;2022-08-03T12:35:45;15.80;;;3.65;;
54139;SDS011;40046;53.254;5.900;2022-08-03T12:38:24;16.02;;;4.55;;
54139;SDS011;40046;53.254;5.900;2022-08-03T12:41:00;18.05;;;4.82;;
54139;SDS011;40046;53.254;5.900;2022-08-03T12:43:28;20.90;;;5.43;;
54139;SDS011;40046;53.254;5.900;2022-08-03T12:46:10;12.30;;;4.15;;
54139;SDS011;40046;53.254;5.900;2022-08-03T12:51:31;15.40;;;5.20;;
54139;SDS011;40046;53.254;5.900;2022-08-03T12:54:07;11.65;;;5.10;;
54139;SDS011;40046;53.254;5.900;2022-08-03T12:56:33;19.83;;;5.82;;
54139;SDS011;40046;53.254;5.900;2022-08-03T12:59:00;15.27;;;4.10;;
54139;SDS011;40046;53.254;5.900;2022-08-03T13:01:45;23.45;;;5.35;;
54139;SDS011;40046;53.254;5.900;2022-08-03T13:04:11;14.77;;;4.03;;
54139;SDS011;40046;53.254;5.900;2022-08-03T13:06:37;13.90;;;5.32;;
54139;SDS011;40046;53.254;5.900;2022-08-03T13:09:04;17.98;;;5.47;;
54139;SDS011;40046;53.254;5.900;2022-08-03T13:11:30;18.67;;;4.70;;
54139;SDS011;40046;53.254;5.900;2022-08-03T13:13:57;18.00;;;4.60;;
54139;SDS011;40046;53.254;5.900;2022-08-03T13:16:23;14.50;;;4.03;;
54139;SDS011;40046;53.254;5.900;2022-08-03T13:18:49;15.52;;;4.10;;
54139;SDS011;40046;53.254;5.900;2022-08-03T13:21:16;14.10;;;4.22;;
54139;SDS011;40046;53.254;5.900;2022-08-03T13:23:44;16.30;;;4.65;;
54139;SDS011;40046;53.254;5.900;2022-08-03T13:26:10;13.35;;;4.53;;
54139;SDS011;40046;53.254;5.900;2022-08-03T13:28:39;16.25;;;4.63;;
54139;SDS011;40046;53.254;5.900;2022-08-03T13:31:05;17.98;;;5.95;;
54139;SDS011;40046;53.254;5.900;2022-08-03T13:33:31;19.35;;;4.65;;
54139;SDS011;40046;53.254;5.900;2022-08-03T13:35:57;15.73;;;5.20;;
54139;SDS011;40046;53.254;5.900;2022-08-03T13:38:23;18.70;;;4.18;;
54139;SDS011;40046;53.254;5.900;2022-08-03T13:40:50;15.90;;;5.07;;
54139;SDS011;40046;53.254;5.900;2022-08-03T13:43:19;14.40;;;4.70;;
54139;SDS011;40046;53.254;5.900;2022-08-03T13:45:46;18.08;;;4.88;;
54139;SDS011;40046;53.254;5.900;2022-08-03T13:48:11;12.82;;;4.32;;
54139;SDS011;40046;53.254;5.900;2022-08-03T13:50:37;15.57;;;4.13;;
54139;SDS011;40046;53.254;5.900;2022-08-03T13:53:03;15.75;;;4.60;;
54139;SDS011;40046;53.254;5.900;2022-08-03T13:55:29;13.88;;;4.45;;
54139;SDS011;40046;53.254;5.900;2022-08-03T13:57:55;19.73;;;4.22;;
54139;SDS011;40046;53.254;5.900;2022-08-03T14:00:20;12.20;;;4.55;;
54139;SDS011;40046;53.254;5.900;2022-08-03T14:02:50;15.30;;;5.20;;
54139;SDS011;40046;53.254;5.900;2022-08-03T14:05:16;19.63;;;4.60;;
54139;SDS011;40046;53.254;5.900;2022-08-03T14:07:42;9.95;;;4.32;;
54139;SDS011;40046;53.254;5.900;2022-08-03T14:10:08;15.40;;;5.93;;
54139;SDS011;40046;53.254;5.900;2022-08-03T14:12:34;17.52;;;4.38;;
54139;SDS011;40046;53.254;5.900;2022-08-03T14:15:00;19.20;;;6.53;;
54139;SDS011;40046;53.254;5.900;2022-08-03T14:17:26;12.32;;;4.10;;
54139;SDS011;40046;53.254;5.900;2022-08-03T14:19:52;11.88;;;3.65;;
54139;SDS011;40046;53.254;5.900;2022-08-03T14:22:17;12.57;;;4.10;;
54139;SDS011;40046;53.254;5.900;2022-08-03T14:24:43;13.70;;;5.43;;
54139;SDS011;40046;53.254;5.900;2022-08-03T14:27:09;15.23;;;4.78;;
54139;SDS011;40046;53.254;5.900;2022-08-03T14:29:35;16.48;;;5.28;;
54139;SDS011;40046;53.254;5.900;2022-08-03T14:32:01;14.18;;;4.05;;
54139;SDS011;40046;53.254;5.900;2022-08-03T14:34:27;19.05;;;4.10;;
54139;SDS011;40046;53.254;5.900;2022-08-03T14:36:52;19.83;;;4.05;;
54139;SDS011;40046;53.254;5.900;2022-08-03T14:39:18;19.13;;;6.43;;
54139;SDS011;40046;53.254;5.900;2022-08-03T14:41:44;14.85;;;4.70;;
54139;SDS011;40046;53.254;5.900;2022-08-03T14:44:10;13.65;;;4.07;;
54139;SDS011;40046;53.254;5.900;2022-08-03T14:46:35;15.68;;;4.85;;
54139;SDS011;40046;53.254;5.900;2022-08-03T14:49:01;14.25;;;4.45;;
54139;SDS011;40046;53.254;5.900;2022-08-03T14:51:27;14.15;;;4.35;;
54139;SDS011;40046;53.254;5.900;2022-08-03T14:53:53;18.05;;;5.25;;
54139;SDS011;40046;53.254;5.900;2022-08-03T14:56:19;16.92;;;3.50;;
54139;SDS011;40046;53.254;5.900;2022-08-03T14:58:45;14.93;;;5.00;;
54139;SDS011;40046;53.254;5.900;2022-08-03T15:01:11;12.70;;;4.18;;
54139;SDS011;40046;53.254;5.900;2022-08-03T15:03:36;12.63;;;4.93;;
54139;SDS011;40046;53.254;5.900;2022-08-03T15:06:02;12.30;;;3.88;;
54139;SDS011;40046;53.254;5.900;2022-08-03T15:08:28;16.73;;;4.97;;
54139;SDS011;40046;53.254;5.900;2022-08-03T15:10:54;15.68;;;3.88;;
54139;SDS011;40046;53.254;5.900;2022-08-03T15:13:20;16.63;;;4.20;;
54139;SDS011;40046;53.254;5.900;2022-08-03T15:15:47;15.38;;;4.13;;
54139;SDS011;40046;53.254;5.900;2022-08-03T15:18:13;10.27;;;3.83;;
54139;SDS011;40046;53.254;5.900;2022-08-03T15:20:39;14.07;;;4.00;;
54139;SDS011;40046;53.254;5.900;2022-08-03T15:23:05;14.65;;;4.53;;
54139;SDS011;40046;53.254;5.900;2022-08-03T15:25:31;13.52;;;4.45;;
54139;SDS011;40046;53.254;5.900;2022-08-03T15:27:57;18.05;;;4.22;;
54139;SDS011;40046;53.254;5.900;2022-08-03T15:30:22;14.57;;;4.38;;
54139;SDS011;40046;53.254;5.900;2022-08-03T15:32:48;14.45;;;4.20;;
54139;SDS011;40046;53.254;5.900;2022-08-03T15:35:14;12.32;;;4.68;;
54139;SDS011;40046;53.254;5.900;2022-08-03T15:37:40;11.60;;;4.28;;
54139;SDS011;40046;53.254;5.900;2022-08-03T15:40:05;13.63;;;5.25;;